createdAt,value
2018-12-11T00:00:59.154Z,5.70
2018-12-11T00:03:26.618Z,5.70
2018-12-11T00:05:54.110Z,5.70
2018-12-11T00:08:21.584Z,5.70
2018-12-11T00:10:49.079Z,5.70
2018-12-11T00:13:16.523Z,5.70
2018-12-11T00:15:44.032Z,5.70
2018-12-11T00:18:11.501Z,5.80
2018-12-11T00:20:38.956Z,5.80
2018-12-11T00:23:06.434Z,5.70
2018-12-11T00:25:33.948Z,5.70
2018-12-11T00:28:01.470Z,5.70
2018-12-11T00:30:28.951Z,5.80
2018-12-11T00:32:56.422Z,5.80
2018-12-11T00:35:23.909Z,5.80
2018-12-11T00:37:51.382Z,5.80
2018-12-11T00:40:18.854Z,5.70
2018-12-11T00:42:46.326Z,5.70
2018-12-11T00:45:13.915Z,5.60
2018-12-11T00:47:41.370Z,5.70
2018-12-11T00:50:08.913Z,5.60
2018-12-11T00:52:36.402Z,5.70
2018-12-11T00:55:04.199Z,5.70
2018-12-11T00:57:31.686Z,5.70
2018-12-11T00:59:59.139Z,5.70
2018-12-11T01:02:26.698Z,5.70
2018-12-11T01:04:54.245Z,5.70
2018-12-11T01:07:21.744Z,5.70
2018-12-11T01:09:49.213Z,5.70
2018-12-11T01:12:16.684Z,5.70
2018-12-11T01:14:44.158Z,5.70
2018-12-11T01:17:11.626Z,5.60
2018-12-11T01:19:39.083Z,5.70
2018-12-11T01:22:06.570Z,5.60
2018-12-11T01:24:34.023Z,5.60
2018-12-11T01:27:01.497Z,5.60
2018-12-11T01:29:28.983Z,5.50
2018-12-11T01:31:56.463Z,5.60
2018-12-11T01:34:24.052Z,5.50
2018-12-11T01:36:51.511Z,5.50
2018-12-11T01:39:18.980Z,5.50
2018-12-11T01:41:47.428Z,5.50
2018-12-11T01:44:14.905Z,5.50
2018-12-11T01:46:42.392Z,5.50
2018-12-11T01:49:09.863Z,5.60
2018-12-11T01:51:37.329Z,5.60
2018-12-11T01:54:04.811Z,5.60
2018-12-11T01:56:32.283Z,5.60
2018-12-11T01:58:59.754Z,5.60
2018-12-11T02:01:27.239Z,5.60
2018-12-11T02:03:54.738Z,5.50
2018-12-11T02:06:22.203Z,5.50
2018-12-11T02:08:49.681Z,5.50
2018-12-11T02:11:17.159Z,5.50
2018-12-11T02:13:44.617Z,5.50
2018-12-11T02:16:12.087Z,5.50
2018-12-11T02:18:39.565Z,5.50
2018-12-11T02:21:07.058Z,5.50
2018-12-11T02:23:34.546Z,5.50
2018-12-11T02:26:02.027Z,5.50
2018-12-11T02:28:29.503Z,5.50
2018-12-11T02:30:56.979Z,5.40
2018-12-11T02:33:24.444Z,5.40
2018-12-11T02:35:51.943Z,5.40
2018-12-11T02:38:19.501Z,5.30
2018-12-11T02:40:47.415Z,5.30
2018-12-11T02:43:14.885Z,5.30
2018-12-11T02:45:42.337Z,5.30
2018-12-11T02:48:09.840Z,5.30
2018-12-11T02:50:37.296Z,5.30
2018-12-11T02:53:04.783Z,5.30
2018-12-11T02:55:32.260Z,5.30
2018-12-11T02:57:59.731Z,5.30
2018-12-11T03:00:27.291Z,5.20
2018-12-11T03:02:54.755Z,5.20
2018-12-11T03:05:22.235Z,5.20
2018-12-11T03:07:49.685Z,5.10
2018-12-11T03:10:17.182Z,5.20
2018-12-11T03:12:44.736Z,5.10
2018-12-11T03:15:12.200Z,5.10
2018-12-11T03:17:39.675Z,5.10
2018-12-11T03:20:07.302Z,5.10
2018-12-11T03:22:34.795Z,5.10
2018-12-11T03:25:02.298Z,5.10
2018-12-11T03:27:29.795Z,5.10
2018-12-11T03:29:57.283Z,5.10
2018-12-11T03:32:25.208Z,5.20
2018-12-11T03:34:52.649Z,5.20
2018-12-11T03:37:20.149Z,5.20
2018-12-11T03:39:47.589Z,5.20
2018-12-11T03:42:15.079Z,5.10
2018-12-11T03:44:42.552Z,5.20
2018-12-11T03:47:10.050Z,5.10
2018-12-11T03:49:37.526Z,5.10
2018-12-11T03:52:04.979Z,5.10
2018-12-11T03:54:32.455Z,5.10
2018-12-11T03:56:59.957Z,5.10
2018-12-11T03:59:27.449Z,5.00
2018-12-11T04:01:54.994Z,4.90
2018-12-11T04:04:22.473Z,4.90
2018-12-11T04:06:49.930Z,4.90
2018-12-11T04:09:17.403Z,5.00
2018-12-11T04:11:44.966Z,5.00
2018-12-11T04:14:12.446Z,5.10
2018-12-11T04:16:39.998Z,5.10
2018-12-11T04:19:07.491Z,5.10
2018-12-11T04:21:34.994Z,5.10
2018-12-11T04:24:02.481Z,5.10
2018-12-11T04:26:29.934Z,5.10
2018-12-11T04:28:57.429Z,5.00
2018-12-11T04:31:24.889Z,4.90
2018-12-11T04:33:52.387Z,4.90
2018-12-11T04:36:19.841Z,4.90
2018-12-11T04:38:47.286Z,4.80
2018-12-11T04:41:14.805Z,4.70
2018-12-11T04:43:42.268Z,4.70
2018-12-11T04:46:09.733Z,4.70
2018-12-11T04:48:37.183Z,4.70
2018-12-11T04:51:04.678Z,4.70
2018-12-11T04:53:32.129Z,4.80
2018-12-11T04:55:59.678Z,4.90
2018-12-11T04:58:27.123Z,4.90
2018-12-11T05:00:54.606Z,5.00
2018-12-11T05:03:22.124Z,5.00
2018-12-11T05:05:49.690Z,5.00
2018-12-11T05:08:17.165Z,5.00
2018-12-11T05:10:44.722Z,5.10
2018-12-11T05:13:12.255Z,5.10
2018-12-11T05:15:39.711Z,5.10
2018-12-11T05:18:07.197Z,5.10
2018-12-11T05:20:34.670Z,5.10
2018-12-11T05:23:02.150Z,5.00
2018-12-11T05:25:29.603Z,5.00
2018-12-11T05:27:57.082Z,5.00
2018-12-11T05:30:24.564Z,5.00
2018-12-11T05:32:52.156Z,5.00
2018-12-11T05:35:19.621Z,5.00
2018-12-11T05:37:47.100Z,5.00
2018-12-11T05:40:14.575Z,5.00
2018-12-11T05:42:42.054Z,5.00
2018-12-11T05:45:09.590Z,5.00
2018-12-11T05:47:37.082Z,5.00
2018-12-11T05:50:05.035Z,5.10
2018-12-11T05:52:32.516Z,5.10
2018-12-11T05:54:59.963Z,5.10
2018-12-11T05:57:27.437Z,5.20
2018-12-11T05:59:54.963Z,5.20
2018-12-11T06:02:22.439Z,5.30
2018-12-11T06:04:49.915Z,5.30
2018-12-11T06:07:17.367Z,5.30
2018-12-11T06:09:44.850Z,5.30
2018-12-11T06:12:12.300Z,5.30
2018-12-11T06:14:39.782Z,5.40
2018-12-11T06:17:07.254Z,5.30
2018-12-11T06:19:34.744Z,5.30
2018-12-11T06:22:02.199Z,5.30
2018-12-11T06:24:29.666Z,5.30
2018-12-11T06:26:57.143Z,5.30
2018-12-11T06:29:24.631Z,5.30
2018-12-11T06:31:52.068Z,5.30
2018-12-11T06:34:19.529Z,5.30
2018-12-11T06:36:47.002Z,5.30
2018-12-11T06:39:14.461Z,5.40
2018-12-11T06:41:41.944Z,5.30
2018-12-11T06:44:09.440Z,5.30
2018-12-11T06:46:36.910Z,5.20
2018-12-11T06:49:04.384Z,5.10
2018-12-11T06:51:31.858Z,5.10
2018-12-11T06:53:59.315Z,5.10
2018-12-11T06:56:26.811Z,5.10
2018-12-11T06:58:54.264Z,5.10
2018-12-11T07:01:21.735Z,5.10
2018-12-11T07:03:49.200Z,5.10
2018-12-11T07:06:16.679Z,5.10
2018-12-11T07:08:44.142Z,5.10
2018-12-11T07:11:11.744Z,5.10
2018-12-11T07:13:39.205Z,5.20
2018-12-11T07:16:06.786Z,5.20
2018-12-11T07:18:34.248Z,5.20
2018-12-11T07:21:01.721Z,5.10
2018-12-11T07:23:29.305Z,5.20
2018-12-11T07:25:56.758Z,5.20
2018-12-11T07:28:24.264Z,5.10
2018-12-11T07:30:51.719Z,5.30
2018-12-11T07:33:19.528Z,5.30
2018-12-11T07:35:47.187Z,5.20
2018-12-11T07:38:14.651Z,5.20
2018-12-11T07:40:42.129Z,5.20
2018-12-11T07:43:09.649Z,5.20
2018-12-11T07:45:37.110Z,5.20
2018-12-11T07:48:04.658Z,5.20
2018-12-11T07:50:32.207Z,5.20
2018-12-11T07:52:59.686Z,5.20
2018-12-11T07:55:27.168Z,5.20
2018-12-11T07:57:54.621Z,5.20
2018-12-11T08:00:22.082Z,5.10
2018-12-11T08:02:49.539Z,5.10
2018-12-11T08:05:17.015Z,5.00
2018-12-11T08:07:44.497Z,5.00
2018-12-11T08:10:11.973Z,4.90
2018-12-11T08:12:39.466Z,4.90
2018-12-11T08:15:07.015Z,4.90
2018-12-11T08:17:34.476Z,4.90
2018-12-11T08:20:02.006Z,4.20
2018-12-11T08:22:29.475Z,4.90
2018-12-11T08:24:56.946Z,4.90
2018-12-11T08:27:24.419Z,5.00
2018-12-11T08:29:51.907Z,5.00
2018-12-11T08:32:19.375Z,5.00
2018-12-11T08:34:46.859Z,4.90
2018-12-11T08:37:14.346Z,5.00
2018-12-11T08:39:41.811Z,5.10
2018-12-11T08:42:09.291Z,5.10
2018-12-11T08:44:36.768Z,5.20
2018-12-11T08:47:04.315Z,5.30
2018-12-11T08:49:31.797Z,5.30
2018-12-11T08:51:59.264Z,5.40
2018-12-11T08:54:26.726Z,5.50
2018-12-11T08:56:54.212Z,5.60
2018-12-11T08:59:21.676Z,5.60
2018-12-11T09:01:49.155Z,5.80
2018-12-11T09:04:16.633Z,5.80
2018-12-11T09:06:44.126Z,5.80
2018-12-11T09:09:11.616Z,5.80
2018-12-11T09:11:39.159Z,5.90
2018-12-11T09:14:06.622Z,5.90
2018-12-11T09:16:34.102Z,5.90
2018-12-11T09:19:01.566Z,5.90
2018-12-11T09:21:29.018Z,5.80
2018-12-11T09:23:56.498Z,5.90
2018-12-11T09:26:23.963Z,6.00
2018-12-11T09:28:51.458Z,5.90
2018-12-11T09:31:18.915Z,6.10
2018-12-11T09:33:46.398Z,6.10
2018-12-11T09:36:13.858Z,6.20
2018-12-11T09:38:41.356Z,6.20
2018-12-11T09:41:08.791Z,6.30
2018-12-11T09:43:36.266Z,6.20
2018-12-11T09:46:03.874Z,6.30
2018-12-11T09:48:31.363Z,6.30
2018-12-11T09:50:58.838Z,6.20
2018-12-11T09:53:26.323Z,6.20
2018-12-11T09:55:53.802Z,6.10
2018-12-11T09:58:21.263Z,6.00
2018-12-11T10:00:48.721Z,6.10
2018-12-11T10:03:16.207Z,6.10
2018-12-11T10:05:43.668Z,6.00
2018-12-11T10:08:11.214Z,6.00
2018-12-11T10:10:38.706Z,6.00
2018-12-11T10:13:06.170Z,6.10
2018-12-11T10:15:33.659Z,6.20
2018-12-11T10:18:01.118Z,6.20
2018-12-11T10:20:28.611Z,6.30
2018-12-11T10:22:56.242Z,6.40
2018-12-11T10:25:23.750Z,6.50
2018-12-11T10:27:51.202Z,6.60
2018-12-11T10:30:18.683Z,6.60
2018-12-11T10:32:48.118Z,6.60
2018-12-11T10:35:15.694Z,6.40
2018-12-11T10:37:43.155Z,6.30
2018-12-11T10:40:10.650Z,6.30
2018-12-11T10:42:38.107Z,6.20
2018-12-11T10:45:05.721Z,6.20
2018-12-11T10:47:33.186Z,6.30
2018-12-11T10:50:00.691Z,6.30
2018-12-11T10:52:28.137Z,6.30
2018-12-11T10:54:55.597Z,6.50
2018-12-11T10:57:23.090Z,6.70
2018-12-11T10:59:50.541Z,6.80
2018-12-11T11:02:23.021Z,6.80
2018-12-11T11:04:50.510Z,7.00
2018-12-11T11:07:18.076Z,7.00
2018-12-11T11:09:46.637Z,7.00
2018-12-11T11:12:14.305Z,7.10
2018-12-11T11:14:41.755Z,7.10
2018-12-11T11:17:09.251Z,7.10
2018-12-11T11:19:36.740Z,7.20
2018-12-11T11:22:04.310Z,7.40
2018-12-11T11:24:31.775Z,7.50
2018-12-11T11:26:59.519Z,7.30
2018-12-11T11:29:26.973Z,7.20
2018-12-11T11:31:54.444Z,7.10
2018-12-11T11:34:21.912Z,7.00
2018-12-11T11:36:49.400Z,7.00
2018-12-11T11:39:16.986Z,7.10
2018-12-11T11:41:44.489Z,7.20
2018-12-11T11:44:11.972Z,7.30
2018-12-11T11:46:39.418Z,7.40
2018-12-11T11:49:06.910Z,7.60
2018-12-11T11:51:34.369Z,7.70
2018-12-11T11:54:01.856Z,7.80
2018-12-11T11:56:29.315Z,7.60
2018-12-11T11:58:56.789Z,7.50
2018-12-11T12:01:24.243Z,7.40
2018-12-11T12:03:51.809Z,7.30
2018-12-11T12:06:19.280Z,7.30
2018-12-11T12:08:46.758Z,7.30
2018-12-11T12:11:14.210Z,7.30
2018-12-11T12:13:41.682Z,7.30
2018-12-11T12:16:09.146Z,7.20
2018-12-11T12:18:36.627Z,7.20
2018-12-11T12:21:04.098Z,7.00
2018-12-11T12:23:31.583Z,6.90
2018-12-11T12:25:59.037Z,7.00
2018-12-11T12:28:26.498Z,7.00
2018-12-11T12:30:54.786Z,7.10
2018-12-11T12:33:22.231Z,7.10
2018-12-11T12:35:49.709Z,7.20
2018-12-11T12:38:17.150Z,7.30
2018-12-11T12:40:44.645Z,7.40
2018-12-11T12:43:12.103Z,7.50
2018-12-11T12:45:39.662Z,7.60
2018-12-11T12:48:07.112Z,7.90
2018-12-11T12:50:34.593Z,8.00
2018-12-11T12:53:02.039Z,8.00
2018-12-11T12:55:29.538Z,8.10
2018-12-11T12:57:56.976Z,8.10
2018-12-11T13:00:24.467Z,8.00
2018-12-11T13:02:51.910Z,7.70
2018-12-11T13:05:19.394Z,7.40
2018-12-11T13:07:46.849Z,7.10
2018-12-11T13:10:14.403Z,7.00
2018-12-11T13:12:42.059Z,6.70
2018-12-11T13:15:09.540Z,6.60
2018-12-11T13:17:36.981Z,6.50
2018-12-11T13:20:04.726Z,6.40
2018-12-11T13:22:32.190Z,6.40
2018-12-11T13:24:59.670Z,6.50
2018-12-11T13:27:27.142Z,6.50
2018-12-11T13:29:54.593Z,6.50
2018-12-11T13:32:22.075Z,6.50
2018-12-11T13:34:49.537Z,6.50
2018-12-11T13:37:17.122Z,6.60
2018-12-11T13:39:44.574Z,6.60
2018-12-11T13:42:12.158Z,6.70
2018-12-11T13:44:39.632Z,6.70
2018-12-11T13:47:07.301Z,6.80
2018-12-11T13:49:34.992Z,6.70
2018-12-11T13:52:02.453Z,6.90
2018-12-11T13:54:29.921Z,7.00
2018-12-11T13:56:57.415Z,7.10
2018-12-11T13:59:24.870Z,7.00
2018-12-11T14:01:52.345Z,6.90
2018-12-11T14:04:19.827Z,6.90
2018-12-11T14:06:47.315Z,6.80
2018-12-11T14:12:25.939Z,6.70
2018-12-11T14:14:53.379Z,6.60
2018-12-11T14:17:20.855Z,6.40
2018-12-11T14:19:48.331Z,6.30
2018-12-11T14:22:15.808Z,6.30
2018-12-11T14:24:43.280Z,6.20
2018-12-11T14:27:10.879Z,6.20
2018-12-11T14:29:38.525Z,6.10
2018-12-11T14:32:06.159Z,6.10
2018-12-11T14:34:33.642Z,6.20
2018-12-11T14:37:01.187Z,6.30
2018-12-11T14:39:28.658Z,6.30
2018-12-11T14:41:56.123Z,6.30
2018-12-11T14:44:24.677Z,6.20
2018-12-11T14:46:52.774Z,6.20
2018-12-11T14:49:20.399Z,6.10
2018-12-11T14:51:47.870Z,6.10
2018-12-11T14:54:15.378Z,6.10
2018-12-11T14:56:42.839Z,6.10
2018-12-11T14:59:10.320Z,6.10
2018-12-11T15:01:37.802Z,6.20
2018-12-11T15:04:06.023Z,6.20
2018-12-11T15:06:33.469Z,6.20
2018-12-11T15:09:06.646Z,6.30
2018-12-11T15:11:34.151Z,6.30
2018-12-11T15:14:01.636Z,6.30
2018-12-11T15:16:29.128Z,6.30
2018-12-11T15:18:56.605Z,6.30
2018-12-11T15:21:25.019Z,6.20
2018-12-11T15:23:52.474Z,6.20
2018-12-11T15:26:19.946Z,6.20
2018-12-11T15:28:47.433Z,6.20
2018-12-11T15:31:14.916Z,6.20
2018-12-11T15:33:42.403Z,6.10
2018-12-11T15:36:09.886Z,6.10
2018-12-11T15:38:37.408Z,6.10
2018-12-11T15:41:04.920Z,6.00
2018-12-11T15:43:33.430Z,6.00
2018-12-11T15:46:01.216Z,6.00
2018-12-11T15:48:28.841Z,6.00
2018-12-11T15:50:56.363Z,6.00
2018-12-11T15:53:23.844Z,6.00
2018-12-11T15:55:51.331Z,6.00
2018-12-11T15:58:24.790Z,6.00
2018-12-11T16:00:48.407Z,5.90
2018-12-11T16:03:15.962Z,5.90
2018-12-11T16:05:43.430Z,5.90
2018-12-11T16:08:11.022Z,5.80
2018-12-11T16:10:38.512Z,5.80
2018-12-11T16:13:05.990Z,5.80
2018-12-11T16:15:33.440Z,5.80
2018-12-11T16:18:01.014Z,5.80
2018-12-11T16:20:28.503Z,5.80
2018-12-11T16:22:56.018Z,5.70
2018-12-11T16:25:23.470Z,5.70
2018-12-11T16:27:51.075Z,5.70
2018-12-11T16:30:18.603Z,5.60
2018-12-11T16:32:46.091Z,5.60
2018-12-11T16:35:13.546Z,5.60
2018-12-11T16:37:41.189Z,5.60
2018-12-11T16:40:08.811Z,5.60
2018-12-11T16:42:36.292Z,5.60
2018-12-11T16:45:05.043Z,5.70
2018-12-11T16:47:32.498Z,5.70
2018-12-11T16:50:00.002Z,5.70
2018-12-11T16:52:27.879Z,5.70
2018-12-11T16:54:55.356Z,5.70
2018-12-11T16:57:22.853Z,5.70
2018-12-11T16:59:50.327Z,5.70
2018-12-11T17:02:17.802Z,5.70
2018-12-11T17:04:46.259Z,5.60
2018-12-11T17:07:14.122Z,5.60
2018-12-11T17:09:42.290Z,5.60
2018-12-11T17:12:10.522Z,5.60
2018-12-11T17:14:38.003Z,5.60
2018-12-11T17:17:05.488Z,5.60
2018-12-11T17:19:32.982Z,5.60
2018-12-11T17:22:00.573Z,5.60
2018-12-11T17:24:28.029Z,5.70
2018-12-11T17:26:57.548Z,5.70
2018-12-11T17:29:25.042Z,5.80
2018-12-11T17:31:52.638Z,5.80
2018-12-11T17:34:20.110Z,5.80
2018-12-11T17:36:47.590Z,5.80
2018-12-11T17:39:15.080Z,5.80
2018-12-11T17:41:42.558Z,5.80
2018-12-11T17:44:10.028Z,5.80
2018-12-11T17:46:37.608Z,5.80
2018-12-11T17:49:05.079Z,5.80
2018-12-11T17:51:32.583Z,5.80
2018-12-11T17:54:00.043Z,5.80
2018-12-11T17:56:27.507Z,5.70
2018-12-11T17:58:55.463Z,5.70
2018-12-11T18:01:24.905Z,5.60
2018-12-11T18:03:52.360Z,5.60
2018-12-11T18:06:19.808Z,5.50
2018-12-11T18:08:47.303Z,5.40
2018-12-11T18:11:14.765Z,5.30
2018-12-11T18:13:42.330Z,5.20
2018-12-11T18:16:09.919Z,5.20
2018-12-11T18:18:37.420Z,5.10
2018-12-11T18:21:04.942Z,5.10
2018-12-11T18:23:32.434Z,5.00
2018-12-11T18:26:00.004Z,5.00
2018-12-11T18:28:27.471Z,5.00
2018-12-11T18:30:54.921Z,5.00
2018-12-11T18:33:22.430Z,5.00
2018-12-11T18:35:50.017Z,5.00
2018-12-11T18:38:17.577Z,5.00
2018-12-11T18:40:45.078Z,4.90
2018-12-11T18:43:12.580Z,4.90
2018-12-11T18:45:40.139Z,4.90
2018-12-11T18:48:07.619Z,4.80
2018-12-11T18:50:35.106Z,4.90
2018-12-11T18:53:02.562Z,4.80
2018-12-11T18:55:30.033Z,4.80
2018-12-11T18:57:57.500Z,4.90
2018-12-11T19:00:24.994Z,4.90
2018-12-11T19:02:52.479Z,4.90
2018-12-11T19:05:20.266Z,4.90
2018-12-11T19:07:47.719Z,4.90
2018-12-11T19:10:15.175Z,4.80
2018-12-11T19:12:42.643Z,4.80
2018-12-11T19:15:10.216Z,4.80
2018-12-11T19:17:37.722Z,4.70
2018-12-11T19:20:06.032Z,4.80
2018-12-11T19:22:33.518Z,4.80
2018-12-11T19:25:00.981Z,4.80
2018-12-11T19:27:28.447Z,4.90
2018-12-11T19:29:55.913Z,4.90
2018-12-11T19:32:23.486Z,4.90
2018-12-11T19:34:50.951Z,4.80
2018-12-11T19:37:18.421Z,4.80
2018-12-11T19:39:45.878Z,4.90
2018-12-11T19:42:13.371Z,5.00
2018-12-11T19:44:40.836Z,5.00
2018-12-11T19:47:08.327Z,5.00
2018-12-11T19:49:35.793Z,5.00
2018-12-11T19:52:03.269Z,5.00
2018-12-11T19:54:30.750Z,5.00
2018-12-11T19:56:58.215Z,4.90
2018-12-11T19:59:26.820Z,5.00
2018-12-11T20:01:54.325Z,5.00
2018-12-11T20:04:21.882Z,5.00
2018-12-11T20:06:49.365Z,5.00
2018-12-11T20:09:16.849Z,5.10
2018-12-11T20:11:44.317Z,5.10
2018-12-11T20:14:11.883Z,5.10
2018-12-11T20:16:39.339Z,5.00
2018-12-11T20:19:06.986Z,5.00
2018-12-11T20:21:34.470Z,5.10
2018-12-11T20:24:04.963Z,5.10
2018-12-11T20:26:31.455Z,5.10
2018-12-11T20:28:58.932Z,5.10
2018-12-11T20:31:26.399Z,5.10
2018-12-11T20:33:53.940Z,5.10
2018-12-11T20:36:21.439Z,5.00
2018-12-11T20:38:49.196Z,5.10
2018-12-11T20:41:16.688Z,5.10
2018-12-11T20:43:44.154Z,5.10
2018-12-11T20:46:11.627Z,5.10
2018-12-11T20:48:39.367Z,5.20
2018-12-11T20:51:06.831Z,5.20
2018-12-11T20:53:34.312Z,5.10
2018-12-11T20:56:01.773Z,5.20
2018-12-11T20:58:29.235Z,5.20
2018-12-11T21:00:56.707Z,5.20
2018-12-11T21:03:24.189Z,5.20
2018-12-11T21:05:51.639Z,5.20
2018-12-11T21:08:19.276Z,5.10
2018-12-11T21:10:46.756Z,5.10
2018-12-11T21:13:14.242Z,5.00
2018-12-11T21:15:41.738Z,4.90
2018-12-11T21:18:09.194Z,4.90
2018-12-11T21:20:36.675Z,4.80
2018-12-11T21:23:04.131Z,4.70
2018-12-11T21:25:31.590Z,4.70
2018-12-11T21:27:59.082Z,4.70
2018-12-11T21:30:26.538Z,4.60
2018-12-11T21:32:54.006Z,4.60
2018-12-11T21:35:21.475Z,4.60
2018-12-11T21:37:49.058Z,4.50
2018-12-11T21:40:16.566Z,4.50
2018-12-11T21:42:44.042Z,4.50
2018-12-11T21:45:11.603Z,4.50
2018-12-11T21:47:39.152Z,4.40
2018-12-11T21:50:07.064Z,4.50
2018-12-11T21:52:34.599Z,4.50
2018-12-11T21:55:02.719Z,4.50
2018-12-11T21:57:30.474Z,4.50
2018-12-11T21:59:57.988Z,4.50
2018-12-11T22:02:25.451Z,4.50
2018-12-11T22:04:53.057Z,4.50
2018-12-11T22:07:21.365Z,4.40
2018-12-11T22:09:49.479Z,4.40
2018-12-11T22:12:17.939Z,4.40
2018-12-11T22:14:45.503Z,4.50
2018-12-11T22:17:12.998Z,4.40
2018-12-11T22:19:40.532Z,4.40
2018-12-11T22:22:08.194Z,4.40
2018-12-11T22:24:35.719Z,4.40
2018-12-11T22:27:03.309Z,4.30
2018-12-11T22:29:30.883Z,4.40
2018-12-11T22:31:58.417Z,4.50
2018-12-11T22:34:25.916Z,4.50
2018-12-11T22:36:53.450Z,4.50
2018-12-11T22:39:21.041Z,4.50
2018-12-11T22:41:48.519Z,4.50
2018-12-11T22:44:16.160Z,4.40
2018-12-11T22:46:43.674Z,4.40
2018-12-11T22:49:11.151Z,4.40
2018-12-11T22:51:39.199Z,4.40
2018-12-11T22:54:07.697Z,4.40
2018-12-11T22:56:35.252Z,4.40
2018-12-11T22:59:02.795Z,4.40
2018-12-11T23:01:30.991Z,4.40
2018-12-11T23:03:59.278Z,4.40
2018-12-11T23:06:26.759Z,4.40
2018-12-11T23:08:54.957Z,4.40
2018-12-11T23:11:22.575Z,4.40
2018-12-11T23:13:50.059Z,4.50
2018-12-11T23:16:17.595Z,4.50
2018-12-11T23:18:45.106Z,4.50
2018-12-11T23:21:12.613Z,4.50
2018-12-11T23:23:40.189Z,4.50
2018-12-11T23:26:07.751Z,4.50
2018-12-11T23:28:35.298Z,4.50
2018-12-11T23:31:02.827Z,4.30
2018-12-11T23:33:30.398Z,4.40
2018-12-11T23:35:57.882Z,4.30
2018-12-11T23:38:25.380Z,4.30
2018-12-11T23:40:52.920Z,4.20
2018-12-11T23:43:20.411Z,4.20
2018-12-11T23:45:47.946Z,4.10
2018-12-11T23:48:15.450Z,4.20
2018-12-11T23:50:43.019Z,4.20
2018-12-11T23:53:10.578Z,4.20
2018-12-11T23:55:38.195Z,4.30
2018-12-11T23:58:05.808Z,4.30
